sensor_id;sensor_type;location;lat;lon;timestamp;P1;durP1;ratioP1;P2;durP2;ratioP2
70253;SDS011;57649;42.968;1.608;2023-11-19T00:00:00;9.93;;;5.88;;
70253;SDS011;57649;42.968;1.608;2023-11-19T00:02:36;11.00;;;5.57;;
70253;SDS011;57649;42.968;1.608;2023-11-19T00:05:05;11.32;;;5.70;;
70253;SDS011;57649;42.968;1.608;2023-11-19T00:07:35;16.17;;;7.43;;
70253;SDS011;57649;42.968;1.608;2023-11-19T00:10:12;14.93;;;7.03;;
70253;SDS011;57649;42.968;1.608;2023-11-19T00:12:59;16.20;;;6.78;;
70253;SDS011;57649;42.968;1.608;2023-11-19T00:15:27;12.13;;;7.05;;
70253;SDS011;57649;42.968;1.608;2023-11-19T00:17:55;19.60;;;6.70;;
70253;SDS011;57649;42.968;1.608;2023-11-19T00:20:28;12.88;;;6.45;;
70253;SDS011;57649;42.968;1.608;2023-11-19T00:23:05;12.15;;;6.35;;
70253;SDS011;57649;42.968;1.608;2023-11-19T00:25:31;16.15;;;8.15;;
70253;SDS011;57649;42.968;1.608;2023-11-19T00:28:02;9.43;;;5.50;;
70253;SDS011;57649;42.968;1.608;2023-11-19T00:30:30;11.75;;;5.97;;
70253;SDS011;57649;42.968;1.608;2023-11-19T00:33:02;11.13;;;5.80;;
70253;SDS011;57649;42.968;1.608;2023-11-19T00:35:36;8.95;;;5.15;;
70253;SDS011;57649;42.968;1.608;2023-11-19T00:38:02;12.25;;;6.47;;
70253;SDS011;57649;42.968;1.608;2023-11-19T00:40:29;14.43;;;6.88;;
70253;SDS011;57649;42.968;1.608;2023-11-19T00:42:56;14.68;;;6.07;;
70253;SDS011;57649;42.968;1.608;2023-11-19T00:45:28;10.25;;;5.30;;
70253;SDS011;57649;42.968;1.608;2023-11-19T00:47:54;11.95;;;5.57;;
70253;SDS011;57649;42.968;1.608;2023-11-19T00:50:53;12.95;;;6.35;;
70253;SDS011;57649;42.968;1.608;2023-11-19T00:53:22;9.35;;;4.65;;
70253;SDS011;57649;42.968;1.608;2023-11-19T00:55:48;9.50;;;4.07;;
70253;SDS011;57649;42.968;1.608;2023-11-19T00:58:13;9.05;;;3.90;;
70253;SDS011;57649;42.968;1.608;2023-11-19T01:00:47;7.22;;;4.05;;
70253;SDS011;57649;42.968;1.608;2023-11-19T01:03:14;6.90;;;4.30;;
70253;SDS011;57649;42.968;1.608;2023-11-19T01:05:45;6.57;;;3.85;;
70253;SDS011;57649;42.968;1.608;2023-11-19T01:08:12;9.85;;;4.57;;
70253;SDS011;57649;42.968;1.608;2023-11-19T01:10:43;9.30;;;4.40;;
70253;SDS011;57649;42.968;1.608;2023-11-19T01:13:09;11.05;;;5.43;;
70253;SDS011;57649;42.968;1.608;2023-11-19T01:15:35;8.35;;;4.68;;
70253;SDS011;57649;42.968;1.608;2023-11-19T01:18:01;10.23;;;4.93;;
70253;SDS011;57649;42.968;1.608;2023-11-19T01:20:29;7.38;;;4.30;;
70253;SDS011;57649;42.968;1.608;2023-11-19T01:22:55;8.98;;;4.28;;
70253;SDS011;57649;42.968;1.608;2023-11-19T01:25:27;7.13;;;3.67;;
70253;SDS011;57649;42.968;1.608;2023-11-19T01:27:52;5.80;;;2.90;;
70253;SDS011;57649;42.968;1.608;2023-11-19T01:30:18;7.90;;;3.83;;
70253;SDS011;57649;42.968;1.608;2023-11-19T01:32:46;5.35;;;3.00;;
70253;SDS011;57649;42.968;1.608;2023-11-19T01:35:11;7.63;;;3.40;;
70253;SDS011;57649;42.968;1.608;2023-11-19T01:37:40;8.43;;;4.30;;
70253;SDS011;57649;42.968;1.608;2023-11-19T01:40:06;14.68;;;4.90;;
70253;SDS011;57649;42.968;1.608;2023-11-19T01:42:39;5.82;;;3.00;;
70253;SDS011;57649;42.968;1.608;2023-11-19T01:45:08;7.45;;;4.38;;
70253;SDS011;57649;42.968;1.608;2023-11-19T01:47:34;10.50;;;3.58;;
70253;SDS011;57649;42.968;1.608;2023-11-19T01:50:01;9.95;;;4.88;;
70253;SDS011;57649;42.968;1.608;2023-11-19T01:52:31;5.68;;;3.50;;
70253;SDS011;57649;42.968;1.608;2023-11-19T01:54:59;7.15;;;4.05;;
70253;SDS011;57649;42.968;1.608;2023-11-19T01:57:25;5.38;;;3.25;;
70253;SDS011;57649;42.968;1.608;2023-11-19T01:59:51;5.15;;;2.60;;
70253;SDS011;57649;42.968;1.608;2023-11-19T02:02:20;8.15;;;3.33;;
70253;SDS011;57649;42.968;1.608;2023-11-19T02:04:49;7.55;;;3.28;;
70253;SDS011;57649;42.968;1.608;2023-11-19T02:07:18;5.10;;;3.22;;
70253;SDS011;57649;42.968;1.608;2023-11-19T02:09:44;7.05;;;3.20;;
70253;SDS011;57649;42.968;1.608;2023-11-19T02:12:10;5.75;;;3.20;;
70253;SDS011;57649;42.968;1.608;2023-11-19T02:14:38;5.22;;;3.38;;
70253;SDS011;57649;42.968;1.608;2023-11-19T02:17:04;5.32;;;3.33;;
70253;SDS011;57649;42.968;1.608;2023-11-19T02:19:30;4.25;;;2.88;;
70253;SDS011;57649;42.968;1.608;2023-11-19T02:22:03;5.13;;;3.35;;
70253;SDS011;57649;42.968;1.608;2023-11-19T02:24:32;4.22;;;2.80;;
70253;SDS011;57649;42.968;1.608;2023-11-19T02:27:06;7.00;;;3.20;;
70253;SDS011;57649;42.968;1.608;2023-11-19T02:29:42;5.50;;;3.17;;
70253;SDS011;57649;42.968;1.608;2023-11-19T02:32:20;6.00;;;2.92;;
70253;SDS011;57649;42.968;1.608;2023-11-19T02:34:48;4.53;;;2.78;;
70253;SDS011;57649;42.968;1.608;2023-11-19T02:37:14;5.72;;;2.65;;
70253;SDS011;57649;42.968;1.608;2023-11-19T02:39:40;4.05;;;2.50;;
70253;SDS011;57649;42.968;1.608;2023-11-19T02:42:06;6.15;;;3.00;;
70253;SDS011;57649;42.968;1.608;2023-11-19T02:44:33;4.65;;;3.03;;
70253;SDS011;57649;42.968;1.608;2023-11-19T02:46:59;5.47;;;2.72;;
70253;SDS011;57649;42.968;1.608;2023-11-19T02:49:24;6.05;;;2.78;;
70253;SDS011;57649;42.968;1.608;2023-11-19T02:51:50;4.97;;;2.90;;
70253;SDS011;57649;42.968;1.608;2023-11-19T02:54:15;5.38;;;2.85;;
70253;SDS011;57649;42.968;1.608;2023-11-19T02:56:44;5.45;;;2.60;;
70253;SDS011;57649;42.968;1.608;2023-11-19T02:59:12;5.55;;;2.90;;
70253;SDS011;57649;42.968;1.608;2023-11-19T03:01:52;4.32;;;2.40;;
70253;SDS011;57649;42.968;1.608;2023-11-19T03:04:17;4.53;;;2.80;;
70253;SDS011;57649;42.968;1.608;2023-11-19T03:06:45;4.10;;;2.40;;
70253;SDS011;57649;42.968;1.608;2023-11-19T03:09:10;4.20;;;2.45;;
70253;SDS011;57649;42.968;1.608;2023-11-19T03:11:36;4.57;;;2.53;;
70253;SDS011;57649;42.968;1.608;2023-11-19T03:14:01;3.95;;;2.33;;
70253;SDS011;57649;42.968;1.608;2023-11-19T03:16:28;6.50;;;2.85;;
70253;SDS011;57649;42.968;1.608;2023-11-19T03:18:54;10.65;;;5.50;;
70253;SDS011;57649;42.968;1.608;2023-11-19T03:21:26;6.18;;;2.88;;
70253;SDS011;57649;42.968;1.608;2023-11-19T03:23:56;5.32;;;2.80;;
70253;SDS011;57649;42.968;1.608;2023-11-19T03:26:34;5.28;;;2.85;;
70253;SDS011;57649;42.968;1.608;2023-11-19T03:29:08;7.28;;;3.10;;
70253;SDS011;57649;42.968;1.608;2023-11-19T03:31:34;9.90;;;3.25;;
70253;SDS011;57649;42.968;1.608;2023-11-19T03:33:59;5.68;;;2.75;;
70253;SDS011;57649;42.968;1.608;2023-11-19T03:36:25;6.07;;;2.72;;
70253;SDS011;57649;42.968;1.608;2023-11-19T03:39:00;4.80;;;2.85;;
70253;SDS011;57649;42.968;1.608;2023-11-19T03:41:25;5.05;;;3.33;;
70253;SDS011;57649;42.968;1.608;2023-11-19T03:43:51;5.63;;;2.60;;
70253;SDS011;57649;42.968;1.608;2023-11-19T03:46:19;4.40;;;2.40;;
70253;SDS011;57649;42.968;1.608;2023-11-19T03:48:48;5.38;;;2.80;;
70253;SDS011;57649;42.968;1.608;2023-11-19T03:51:14;6.57;;;2.43;;
70253;SDS011;57649;42.968;1.608;2023-11-19T03:53:43;4.28;;;2.63;;
70253;SDS011;57649;42.968;1.608;2023-11-19T03:56:09;3.83;;;2.43;;
70253;SDS011;57649;42.968;1.608;2023-11-19T03:58:36;9.27;;;2.42;;
70253;SDS011;57649;42.968;1.608;2023-11-19T04:01:01;5.57;;;2.70;;
70253;SDS011;57649;42.968;1.608;2023-11-19T04:03:27;4.57;;;2.53;;
70253;SDS011;57649;42.968;1.608;2023-11-19T04:05:53;6.10;;;2.10;;
70253;SDS011;57649;42.968;1.608;2023-11-19T04:08:18;5.43;;;2.50;;
70253;SDS011;57649;42.968;1.608;2023-11-19T04:10:44;5.45;;;2.75;;
70253;SDS011;57649;42.968;1.608;2023-11-19T04:13:10;4.90;;;2.58;;
70253;SDS011;57649;42.968;1.608;2023-11-19T04:15:35;5.03;;;2.83;;
70253;SDS011;57649;42.968;1.608;2023-11-19T04:18:01;4.20;;;2.83;;
70253;SDS011;57649;42.968;1.608;2023-11-19T04:20:26;4.40;;;2.30;;
70253;SDS011;57649;42.968;1.608;2023-11-19T04:22:51;6.55;;;2.40;;
70253;SDS011;57649;42.968;1.608;2023-11-19T04:25:18;3.00;;;2.00;;
70253;SDS011;57649;42.968;1.608;2023-11-19T04:27:44;4.72;;;2.28;;
70253;SDS011;57649;42.968;1.608;2023-11-19T04:30:10;3.47;;;2.13;;
70253;SDS011;57649;42.968;1.608;2023-11-19T04:32:36;3.90;;;2.50;;
70253;SDS011;57649;42.968;1.608;2023-11-19T04:35:01;5.25;;;1.92;;
70253;SDS011;57649;42.968;1.608;2023-11-19T04:37:27;3.53;;;2.10;;
70253;SDS011;57649;42.968;1.608;2023-11-19T04:39:52;6.75;;;2.55;;
70253;SDS011;57649;42.968;1.608;2023-11-19T04:42:18;3.95;;;2.08;;
70253;SDS011;57649;42.968;1.608;2023-11-19T04:44:43;4.10;;;2.47;;
70253;SDS011;57649;42.968;1.608;2023-11-19T04:47:08;4.45;;;2.13;;
70253;SDS011;57649;42.968;1.608;2023-11-19T04:49:36;3.88;;;2.08;;
70253;SDS011;57649;42.968;1.608;2023-11-19T04:52:10;5.30;;;2.35;;
70253;SDS011;57649;42.968;1.608;2023-11-19T04:54:40;5.00;;;1.98;;
70253;SDS011;57649;42.968;1.608;2023-11-19T04:57:09;4.80;;;2.05;;
70253;SDS011;57649;42.968;1.608;2023-11-19T04:59:38;3.72;;;1.60;;
70253;SDS011;57649;42.968;1.608;2023-11-19T05:02:03;3.13;;;1.88;;
70253;SDS011;57649;42.968;1.608;2023-11-19T05:04:30;2.63;;;1.80;;
70253;SDS011;57649;42.968;1.608;2023-11-19T05:06:55;4.68;;;1.67;;
70253;SDS011;57649;42.968;1.608;2023-11-19T05:09:21;3.28;;;1.85;;
70253;SDS011;57649;42.968;1.608;2023-11-19T05:11:46;3.33;;;2.03;;
70253;SDS011;57649;42.968;1.608;2023-11-19T05:14:12;4.10;;;2.05;;
70253;SDS011;57649;42.968;1.608;2023-11-19T05:16:39;3.45;;;1.98;;
70253;SDS011;57649;42.968;1.608;2023-11-19T05:19:05;4.80;;;2.53;;
70253;SDS011;57649;42.968;1.608;2023-11-19T05:21:30;4.00;;;2.10;;
70253;SDS011;57649;42.968;1.608;2023-11-19T05:23:56;3.35;;;1.88;;
70253;SDS011;57649;42.968;1.608;2023-11-19T05:26:22;4.82;;;1.60;;
70253;SDS011;57649;42.968;1.608;2023-11-19T05:28:49;3.35;;;1.80;;
70253;SDS011;57649;42.968;1.608;2023-11-19T05:31:15;4.47;;;2.08;;
70253;SDS011;57649;42.968;1.608;2023-11-19T05:33:42;5.18;;;1.60;;
70253;SDS011;57649;42.968;1.608;2023-11-19T05:36:07;3.83;;;2.30;;
70253;SDS011;57649;42.968;1.608;2023-11-19T05:38:33;5.70;;;2.25;;
70253;SDS011;57649;42.968;1.608;2023-11-19T05:41:02;4.50;;;1.67;;
70253;SDS011;57649;42.968;1.608;2023-11-19T05:43:30;3.20;;;2.10;;
70253;SDS011;57649;42.968;1.608;2023-11-19T05:45:55;3.65;;;2.10;;
70253;SDS011;57649;42.968;1.608;2023-11-19T05:48:21;4.32;;;1.80;;
70253;SDS011;57649;42.968;1.608;2023-11-19T05:50:47;3.78;;;2.30;;
70253;SDS011;57649;42.968;1.608;2023-11-19T05:53:14;3.78;;;2.60;;
70253;SDS011;57649;42.968;1.608;2023-11-19T05:55:40;5.40;;;1.70;;
70253;SDS011;57649;42.968;1.608;2023-11-19T05:58:16;7.78;;;2.35;;
70253;SDS011;57649;42.968;1.608;2023-11-19T06:00:42;2.42;;;1.50;;
70253;SDS011;57649;42.968;1.608;2023-11-19T06:03:07;4.53;;;2.10;;
70253;SDS011;57649;42.968;1.608;2023-11-19T06:05:34;3.78;;;2.15;;
70253;SDS011;57649;42.968;1.608;2023-11-19T06:07:59;4.15;;;2.25;;
70253;SDS011;57649;42.968;1.608;2023-11-19T06:10:24;3.95;;;2.33;;
70253;SDS011;57649;42.968;1.608;2023-11-19T06:12:59;6.50;;;2.00;;
70253;SDS011;57649;42.968;1.608;2023-11-19T06:15:25;7.07;;;2.63;;
70253;SDS011;57649;42.968;1.608;2023-11-19T06:17:52;3.65;;;2.08;;
70253;SDS011;57649;42.968;1.608;2023-11-19T06:20:17;3.45;;;2.35;;
70253;SDS011;57649;42.968;1.608;2023-11-19T06:22:44;7.55;;;2.50;;
70253;SDS011;57649;42.968;1.608;2023-11-19T06:25:10;5.00;;;2.50;;
70253;SDS011;57649;42.968;1.608;2023-11-19T06:27:36;6.30;;;2.22;;
70253;SDS011;57649;42.968;1.608;2023-11-19T06:30:01;2.80;;;2.00;;
70253;SDS011;57649;42.968;1.608;2023-11-19T06:32:27;3.83;;;2.22;;
70253;SDS011;57649;42.968;1.608;2023-11-19T06:34:53;7.28;;;2.42;;
70253;SDS011;57649;42.968;1.608;2023-11-19T06:37:19;3.13;;;2.20;;
70253;SDS011;57649;42.968;1.608;2023-11-19T06:39:44;3.42;;;2.00;;
70253;SDS011;57649;42.968;1.608;2023-11-19T06:42:10;4.65;;;1.88;;
70253;SDS011;57649;42.968;1.608;2023-11-19T06:44:35;4.03;;;2.40;;
70253;SDS011;57649;42.968;1.608;2023-11-19T06:47:01;3.70;;;1.88;;
70253;SDS011;57649;42.968;1.608;2023-11-19T06:49:26;3.92;;;1.80;;
70253;SDS011;57649;42.968;1.608;2023-11-19T06:51:51;5.68;;;2.00;;
70253;SDS011;57649;42.968;1.608;2023-11-19T06:54:17;3.22;;;2.03;;
70253;SDS011;57649;42.968;1.608;2023-11-19T06:56:42;3.35;;;2.20;;
70253;SDS011;57649;42.968;1.608;2023-11-19T06:59:08;3.30;;;2.00;;
70253;SDS011;57649;42.968;1.608;2023-11-19T07:01:34;4.72;;;2.42;;
70253;SDS011;57649;42.968;1.608;2023-11-19T07:04:03;3.17;;;2.10;;
70253;SDS011;57649;42.968;1.608;2023-11-19T07:06:35;3.72;;;2.00;;
70253;SDS011;57649;42.968;1.608;2023-11-19T07:09:01;5.15;;;2.28;;
70253;SDS011;57649;42.968;1.608;2023-11-19T07:11:37;6.35;;;2.65;;
70253;SDS011;57649;42.968;1.608;2023-11-19T07:14:03;3.90;;;2.00;;
70253;SDS011;57649;42.968;1.608;2023-11-19T07:16:31;3.25;;;1.98;;
70253;SDS011;57649;42.968;1.608;2023-11-19T07:18:56;5.20;;;2.10;;
70253;SDS011;57649;42.968;1.608;2023-11-19T07:21:24;8.45;;;3.15;;
70253;SDS011;57649;42.968;1.608;2023-11-19T07:23:49;8.68;;;4.25;;
70253;SDS011;57649;42.968;1.608;2023-11-19T07:26:35;10.40;;;4.25;;
70253;SDS011;57649;42.968;1.608;2023-11-19T07:29:13;10.80;;;5.40;;
70253;SDS011;57649;42.968;1.608;2023-11-19T07:31:41;11.43;;;4.05;;
70253;SDS011;57649;42.968;1.608;2023-11-19T07:34:09;8.75;;;4.97;;
70253;SDS011;57649;42.968;1.608;2023-11-19T07:36:35;9.05;;;4.38;;
70253;SDS011;57649;42.968;1.608;2023-11-19T07:39:01;15.57;;;10.05;;
70253;SDS011;57649;42.968;1.608;2023-11-19T07:41:26;6.28;;;2.90;;
70253;SDS011;57649;42.968;1.608;2023-11-19T07:43:52;5.45;;;2.80;;
70253;SDS011;57649;42.968;1.608;2023-11-19T07:46:17;6.68;;;2.78;;
70253;SDS011;57649;42.968;1.608;2023-11-19T07:48:45;6.88;;;3.22;;
70253;SDS011;57649;42.968;1.608;2023-11-19T07:51:14;5.28;;;3.03;;
70253;SDS011;57649;42.968;1.608;2023-11-19T07:53:42;8.75;;;3.38;;
70253;SDS011;57649;42.968;1.608;2023-11-19T07:56:08;3.88;;;2.22;;
70253;SDS011;57649;42.968;1.608;2023-11-19T07:58:34;4.88;;;2.63;;
70253;SDS011;57649;42.968;1.608;2023-11-19T08:01:00;4.95;;;2.17;;
70253;SDS011;57649;42.968;1.608;2023-11-19T08:03:26;3.97;;;1.92;;
70253;SDS011;57649;42.968;1.608;2023-11-19T08:05:55;3.20;;;1.98;;
70253;SDS011;57649;42.968;1.608;2023-11-19T08:08:22;4.43;;;1.90;;
70253;SDS011;57649;42.968;1.608;2023-11-19T08:10:47;5.10;;;2.00;;
70253;SDS011;57649;42.968;1.608;2023-11-19T08:13:13;2.95;;;1.88;;
70253;SDS011;57649;42.968;1.608;2023-11-19T08:15:38;3.90;;;2.38;;
70253;SDS011;57649;42.968;1.608;2023-11-19T08:18:03;3.47;;;2.20;;
70253;SDS011;57649;42.968;1.608;2023-11-19T08:20:30;4.15;;;2.05;;
70253;SDS011;57649;42.968;1.608;2023-11-19T08:22:55;5.10;;;2.50;;
70253;SDS011;57649;42.968;1.608;2023-11-19T08:25:20;5.07;;;2.00;;
70253;SDS011;57649;42.968;1.608;2023-11-19T08:27:46;5.60;;;2.67;;
70253;SDS011;57649;42.968;1.608;2023-11-19T08:30:11;4.32;;;2.38;;
70253;SDS011;57649;42.968;1.608;2023-11-19T08:32:37;4.05;;;2.58;;
70253;SDS011;57649;42.968;1.608;2023-11-19T08:35:03;5.93;;;2.10;;
70253;SDS011;57649;42.968;1.608;2023-11-19T08:37:31;3.88;;;1.85;;
70253;SDS011;57649;42.968;1.608;2023-11-19T08:39:56;2.65;;;1.60;;
70253;SDS011;57649;42.968;1.608;2023-11-19T08:42:22;6.07;;;2.97;;
70253;SDS011;57649;42.968;1.608;2023-11-19T08:44:50;6.90;;;2.05;;
70253;SDS011;57649;42.968;1.608;2023-11-19T08:47:16;4.10;;;2.10;;
70253;SDS011;57649;42.968;1.608;2023-11-19T08:49:43;2.75;;;1.90;;
70253;SDS011;57649;42.968;1.608;2023-11-19T08:52:09;5.28;;;2.70;;
70253;SDS011;57649;42.968;1.608;2023-11-19T08:54:37;4.55;;;2.67;;
70253;SDS011;57649;42.968;1.608;2023-11-19T08:57:02;3.13;;;2.30;;
70253;SDS011;57649;42.968;1.608;2023-11-19T08:59:29;4.63;;;2.58;;
70253;SDS011;57649;42.968;1.608;2023-11-19T09:01:55;4.85;;;1.98;;
70253;SDS011;57649;42.968;1.608;2023-11-19T09:04:23;3.35;;;1.90;;
70253;SDS011;57649;42.968;1.608;2023-11-19T09:06:49;5.70;;;2.10;;
70253;SDS011;57649;42.968;1.608;2023-11-19T09:09:14;5.70;;;1.95;;
70253;SDS011;57649;42.968;1.608;2023-11-19T09:11:40;4.18;;;2.35;;
70253;SDS011;57649;42.968;1.608;2023-11-19T09:14:05;6.30;;;2.20;;
70253;SDS011;57649;42.968;1.608;2023-11-19T09:16:30;5.10;;;2.00;;
70253;SDS011;57649;42.968;1.608;2023-11-19T09:18:56;8.90;;;2.70;;
70253;SDS011;57649;42.968;1.608;2023-11-19T09:21:22;3.65;;;2.08;;
70253;SDS011;57649;42.968;1.608;2023-11-19T09:23:48;5.55;;;2.20;;
70253;SDS011;57649;42.968;1.608;2023-11-19T09:26:14;4.18;;;2.05;;
70253;SDS011;57649;42.968;1.608;2023-11-19T09:28:39;6.80;;;4.63;;
70253;SDS011;57649;42.968;1.608;2023-11-19T09:31:14;6.63;;;3.78;;
70253;SDS011;57649;42.968;1.608;2023-11-19T09:33:40;6.75;;;3.30;;
70253;SDS011;57649;42.968;1.608;2023-11-19T09:36:06;5.78;;;3.17;;
70253;SDS011;57649;42.968;1.608;2023-11-19T09:38:31;8.98;;;3.63;;
70253;SDS011;57649;42.968;1.608;2023-11-19T09:40:58;4.47;;;3.28;;
70253;SDS011;57649;42.968;1.608;2023-11-19T09:43:24;7.18;;;3.97;;
70253;SDS011;57649;42.968;1.608;2023-11-19T09:45:53;6.50;;;3.25;;
70253;SDS011;57649;42.968;1.608;2023-11-19T09:48:21;5.68;;;2.47;;
70253;SDS011;57649;42.968;1.608;2023-11-19T09:50:49;7.40;;;2.80;;
70253;SDS011;57649;42.968;1.608;2023-11-19T09:53:16;4.43;;;2.30;;
70253;SDS011;57649;42.968;1.608;2023-11-19T09:55:42;5.38;;;2.78;;
70253;SDS011;57649;42.968;1.608;2023-11-19T09:58:08;7.55;;;3.53;;
70253;SDS011;57649;42.968;1.608;2023-11-19T10:00:36;5.03;;;1.83;;
70253;SDS011;57649;42.968;1.608;2023-11-19T10:03:02;3.20;;;1.58;;
70253;SDS011;57649;42.968;1.608;2023-11-19T10:05:30;3.45;;;1.63;;
70253;SDS011;57649;42.968;1.608;2023-11-19T10:07:55;3.70;;;2.72;;
70253;SDS011;57649;42.968;1.608;2023-11-19T10:10:21;5.25;;;2.38;;
70253;SDS011;57649;42.968;1.608;2023-11-19T10:12:46;2.92;;;1.70;;
70253;SDS011;57649;42.968;1.608;2023-11-19T10:15:15;4.07;;;2.80;;
70253;SDS011;57649;42.968;1.608;2023-11-19T10:17:45;4.22;;;1.63;;
70253;SDS011;57649;42.968;1.608;2023-11-19T10:20:11;3.72;;;1.85;;
70253;SDS011;57649;42.968;1.608;2023-11-19T10:22:37;5.40;;;1.70;;
70253;SDS011;57649;42.968;1.608;2023-11-19T10:25:03;2.05;;;1.50;;
70253;SDS011;57649;42.968;1.608;2023-11-19T10:27:29;4.18;;;2.25;;
70253;SDS011;57649;42.968;1.608;2023-11-19T10:29:58;7.22;;;2.70;;
70253;SDS011;57649;42.968;1.608;2023-11-19T10:32:24;4.88;;;1.58;;
70253;SDS011;57649;42.968;1.608;2023-11-19T10:34:50;2.05;;;1.50;;
70253;SDS011;57649;42.968;1.608;2023-11-19T10:37:28;2.78;;;1.77;;
70253;SDS011;57649;42.968;1.608;2023-11-19T10:39:55;2.08;;;1.38;;
70253;SDS011;57649;42.968;1.608;2023-11-19T10:42:20;5.35;;;1.58;;
70253;SDS011;57649;42.968;1.608;2023-11-19T10:44:46;1.80;;;1.30;;
70253;SDS011;57649;42.968;1.608;2023-11-19T10:47:11;1.60;;;1.20;;
70253;SDS011;57649;42.968;1.608;2023-11-19T10:49:39;1.88;;;1.05;;
70253;SDS011;57649;42.968;1.608;2023-11-19T10:52:05;2.25;;;1.27;;
70253;SDS011;57649;42.968;1.608;2023-11-19T10:54:34;1.92;;;1.08;;
70253;SDS011;57649;42.968;1.608;2023-11-19T10:56:59;4.47;;;1.10;;
70253;SDS011;57649;42.968;1.608;2023-11-19T10:59:30;4.07;;;1.30;;
70253;SDS011;57649;42.968;1.608;2023-11-19T11:02:00;3.03;;;1.25;;
70253;SDS011;57649;42.968;1.608;2023-11-19T11:04:32;2.97;;;1.17;;
70253;SDS011;57649;42.968;1.608;2023-11-19T11:07:03;2.83;;;1.40;;
70253;SDS011;57649;42.968;1.608;2023-11-19T11:09:30;3.17;;;1.40;;
70253;SDS011;57649;42.968;1.608;2023-11-19T11:11:57;2.20;;;1.30;;
70253;SDS011;57649;42.968;1.608;2023-11-19T11:14:24;2.13;;;1.10;;
70253;SDS011;57649;42.968;1.608;2023-11-19T11:16:50;2.60;;;1.30;;
70253;SDS011;57649;42.968;1.608;2023-11-19T11:19:18;2.28;;;1.20;;
70253;SDS011;57649;42.968;1.608;2023-11-19T11:21:44;3.85;;;1.73;;
70253;SDS011;57649;42.968;1.608;2023-11-19T11:27:02;4.40;;;1.20;;
70253;SDS011;57649;42.968;1.608;2023-11-19T11:38:45;1.50;;;0.95;;
70253;SDS011;57649;42.968;1.608;2023-11-19T11:41:23;9.00;;;3.60;;
70253;SDS011;57649;42.968;1.608;2023-11-19T11:43:53;1.90;;;1.25;;
70253;SDS011;57649;42.968;1.608;2023-11-19T11:49:03;4.13;;;1.50;;
70253;SDS011;57649;42.968;1.608;2023-11-19T11:54:10;3.55;;;1.50;;
70253;SDS011;57649;42.968;1.608;2023-11-19T12:02:10;4.43;;;1.85;;
70253;SDS011;57649;42.968;1.608;2023-11-19T12:04:38;4.55;;;2.05;;
70253;SDS011;57649;42.968;1.608;2023-11-19T12:09:31;6.95;;;2.45;;
70253;SDS011;57649;42.968;1.608;2023-11-19T12:20:00;3.78;;;1.83;;
70253;SDS011;57649;42.968;1.608;2023-11-19T12:22:26;4.75;;;2.00;;
70253;SDS011;57649;42.968;1.608;2023-11-19T12:24:55;4.95;;;2.05;;
70253;SDS011;57649;42.968;1.608;2023-11-19T12:27:21;5.50;;;2.33;;
70253;SDS011;57649;42.968;1.608;2023-11-19T12:29:51;5.57;;;1.85;;
70253;SDS011;57649;42.968;1.608;2023-11-19T12:32:16;5.93;;;2.00;;
70253;SDS011;57649;42.968;1.608;2023-11-19T12:34:44;5.15;;;1.60;;
70253;SDS011;57649;42.968;1.608;2023-11-19T12:37:10;4.13;;;2.03;;
70253;SDS011;57649;42.968;1.608;2023-11-19T12:39:35;4.40;;;2.05;;
70253;SDS011;57649;42.968;1.608;2023-11-19T12:42:01;3.00;;;1.80;;
70253;SDS011;57649;42.968;1.608;2023-11-19T12:44:27;4.28;;;1.80;;
70253;SDS011;57649;42.968;1.608;2023-11-19T12:46:59;3.88;;;2.10;;
70253;SDS011;57649;42.968;1.608;2023-11-19T12:49:26;4.43;;;3.40;;
70253;SDS011;57649;42.968;1.608;2023-11-19T12:51:51;3.30;;;1.67;;
70253;SDS011;57649;42.968;1.608;2023-11-19T12:54:17;4.13;;;1.73;;
70253;SDS011;57649;42.968;1.608;2023-11-19T12:56:52;6.63;;;2.70;;
70253;SDS011;57649;42.968;1.608;2023-11-19T12:59:18;6.18;;;1.85;;
70253;SDS011;57649;42.968;1.608;2023-11-19T13:01:56;3.88;;;1.85;;
70253;SDS011;57649;42.968;1.608;2023-11-19T13:04:23;3.42;;;1.98;;
70253;SDS011;57649;42.968;1.608;2023-11-19T13:06:52;2.95;;;1.60;;
70253;SDS011;57649;42.968;1.608;2023-11-19T13:09:21;5.13;;;1.88;;
70253;SDS011;57649;42.968;1.608;2023-11-19T13:11:49;2.55;;;1.55;;
70253;SDS011;57649;42.968;1.608;2023-11-19T13:14:14;5.25;;;1.90;;
70253;SDS011;57649;42.968;1.608;2023-11-19T13:16:40;3.85;;;2.03;;
70253;SDS011;57649;42.968;1.608;2023-11-19T13:19:05;3.30;;;1.70;;
70253;SDS011;57649;42.968;1.608;2023-11-19T13:21:31;2.63;;;1.65;;
70253;SDS011;57649;42.968;1.608;2023-11-19T13:23:56;3.30;;;1.77;;
70253;SDS011;57649;42.968;1.608;2023-11-19T13:26:22;2.70;;;1.60;;
70253;SDS011;57649;42.968;1.608;2023-11-19T13:28:48;2.95;;;1.80;;
70253;SDS011;57649;42.968;1.608;2023-11-19T13:31:14;4.43;;;1.60;;
70253;SDS011;57649;42.968;1.608;2023-11-19T13:33:39;4.07;;;1.83;;
70253;SDS011;57649;42.968;1.608;2023-11-19T13:36:04;4.28;;;2.08;;
70253;SDS011;57649;42.968;1.608;2023-11-19T13:38:31;2.63;;;1.73;;
70253;SDS011;57649;42.968;1.608;2023-11-19T13:40:57;3.65;;;1.67;;
70253;SDS011;57649;42.968;1.608;2023-11-19T13:43:23;2.97;;;1.70;;
70253;SDS011;57649;42.968;1.608;2023-11-19T13:45:49;3.83;;;1.95;;
70253;SDS011;57649;42.968;1.608;2023-11-19T13:48:15;4.63;;;2.65;;
70253;SDS011;57649;42.968;1.608;2023-11-19T13:50:41;2.17;;;1.50;;
70253;SDS011;57649;42.968;1.608;2023-11-19T13:53:07;2.00;;;1.40;;
70253;SDS011;57649;42.968;1.608;2023-11-19T13:55:33;3.13;;;1.50;;
70253;SDS011;57649;42.968;1.608;2023-11-19T13:57:58;3.72;;;1.90;;
70253;SDS011;57649;42.968;1.608;2023-11-19T14:00:23;1.73;;;1.20;;
70253;SDS011;57649;42.968;1.608;2023-11-19T14:02:49;3.88;;;1.98;;
70253;SDS011;57649;42.968;1.608;2023-11-19T14:05:15;2.60;;;1.70;;
70253;SDS011;57649;42.968;1.608;2023-11-19T14:07:44;3.28;;;1.85;;
70253;SDS011;57649;42.968;1.608;2023-11-19T14:10:13;2.35;;;1.38;;
70253;SDS011;57649;42.968;1.608;2023-11-19T14:12:38;3.35;;;1.40;;
70253;SDS011;57649;42.968;1.608;2023-11-19T14:15:07;3.88;;;1.80;;
70253;SDS011;57649;42.968;1.608;2023-11-19T14:17:34;3.00;;;1.20;;
70253;SDS011;57649;42.968;1.608;2023-11-19T14:20:00;2.42;;;1.67;;
70253;SDS011;57649;42.968;1.608;2023-11-19T14:22:27;2.65;;;2.10;;
70253;SDS011;57649;42.968;1.608;2023-11-19T14:24:53;3.03;;;1.60;;
70253;SDS011;57649;42.968;1.608;2023-11-19T14:27:20;2.15;;;1.40;;
70253;SDS011;57649;42.968;1.608;2023-11-19T14:29:47;3.55;;;1.52;;
70253;SDS011;57649;42.968;1.608;2023-11-19T14:32:12;2.30;;;1.42;;
70253;SDS011;57649;42.968;1.608;2023-11-19T14:34:38;4.82;;;2.25;;
70253;SDS011;57649;42.968;1.608;2023-11-19T14:37:03;5.32;;;2.17;;
70253;SDS011;57649;42.968;1.608;2023-11-19T14:39:29;4.00;;;2.33;;
70253;SDS011;57649;42.968;1.608;2023-11-19T14:41:56;3.67;;;2.38;;
70253;SDS011;57649;42.968;1.608;2023-11-19T14:46:51;3.20;;;2.67;;
70253;SDS011;57649;42.968;1.608;2023-11-19T14:49:16;5.50;;;2.63;;
70253;SDS011;57649;42.968;1.608;2023-11-19T14:51:41;4.07;;;1.70;;
70253;SDS011;57649;42.968;1.608;2023-11-19T14:54:07;2.58;;;1.30;;
70253;SDS011;57649;42.968;1.608;2023-11-19T14:56:32;3.50;;;1.48;;
70253;SDS011;57649;42.968;1.608;2023-11-19T14:58:58;5.03;;;1.27;;
70253;SDS011;57649;42.968;1.608;2023-11-19T15:01:24;2.05;;;1.05;;
70253;SDS011;57649;42.968;1.608;2023-11-19T15:03:49;3.55;;;2.03;;
70253;SDS011;57649;42.968;1.608;2023-11-19T15:06:15;2.55;;;1.48;;
70253;SDS011;57649;42.968;1.608;2023-11-19T15:08:40;3.70;;;1.40;;
70253;SDS011;57649;42.968;1.608;2023-11-19T15:11:07;1.98;;;1.30;;
70253;SDS011;57649;42.968;1.608;2023-11-19T15:13:34;2.80;;;1.90;;
70253;SDS011;57649;42.968;1.608;2023-11-19T15:16:01;2.72;;;1.80;;
70253;SDS011;57649;42.968;1.608;2023-11-19T15:18:27;2.30;;;1.55;;
70253;SDS011;57649;42.968;1.608;2023-11-19T15:20:52;3.65;;;1.55;;